sensor_id;sensor_type;location;lat;lon;timestamp;P1;durP1;ratioP1;P2;durP2;ratioP2
9334;SDS011;4706;41.844;26.082;2023-04-24T00:00:45;8.73;;;6.55;;
9334;SDS011;4706;41.844;26.082;2023-04-24T00:03:10;7.05;;;5.97;;
9334;SDS011;4706;41.844;26.082;2023-04-24T00:05:36;7.45;;;5.55;;
9334;SDS011;4706;41.844;26.082;2023-04-24T00:08:01;7.55;;;6.03;;
9334;SDS011;4706;41.844;26.082;2023-04-24T00:10:27;9.27;;;6.13;;
9334;SDS011;4706;41.844;26.082;2023-04-24T00:12:52;7.97;;;5.90;;
9334;SDS011;4706;41.844;26.082;2023-04-24T00:15:18;7.22;;;6.53;;
9334;SDS011;4706;41.844;26.082;2023-04-24T00:17:43;9.05;;;6.60;;
9334;SDS011;4706;41.844;26.082;2023-04-24T00:20:09;8.48;;;5.85;;
9334;SDS011;4706;41.844;26.082;2023-04-24T00:22:35;6.53;;;5.90;;
9334;SDS011;4706;41.844;26.082;2023-04-24T00:25:01;8.82;;;6.03;;
9334;SDS011;4706;41.844;26.082;2023-04-24T00:27:26;9.18;;;6.25;;
9334;SDS011;4706;41.844;26.082;2023-04-24T00:29:52;9.50;;;6.60;;
9334;SDS011;4706;41.844;26.082;2023-04-24T00:32:17;9.20;;;6.32;;
9334;SDS011;4706;41.844;26.082;2023-04-24T00:34:43;7.68;;;6.50;;
9334;SDS011;4706;41.844;26.082;2023-04-24T00:37:09;8.13;;;6.95;;
9334;SDS011;4706;41.844;26.082;2023-04-24T00:39:34;9.00;;;6.85;;
9334;SDS011;4706;41.844;26.082;2023-04-24T00:42:00;8.57;;;6.53;;
9334;SDS011;4706;41.844;26.082;2023-04-24T00:44:26;9.43;;;7.30;;
9334;SDS011;4706;41.844;26.082;2023-04-24T00:46:53;10.05;;;7.43;;
9334;SDS011;4706;41.844;26.082;2023-04-24T00:49:20;9.18;;;7.90;;
9334;SDS011;4706;41.844;26.082;2023-04-24T00:51:46;9.82;;;7.53;;
9334;SDS011;4706;41.844;26.082;2023-04-24T00:54:12;15.65;;;7.68;;
9334;SDS011;4706;41.844;26.082;2023-04-24T00:56:39;9.13;;;8.00;;
9334;SDS011;4706;41.844;26.082;2023-04-24T00:59:05;12.85;;;8.10;;
9334;SDS011;4706;41.844;26.082;2023-04-24T01:01:31;9.50;;;8.23;;
9334;SDS011;4706;41.844;26.082;2023-04-24T01:03:57;9.32;;;8.35;;
9334;SDS011;4706;41.844;26.082;2023-04-24T01:06:24;10.48;;;8.57;;
9334;SDS011;4706;41.844;26.082;2023-04-24T01:08:52;13.63;;;8.90;;
9334;SDS011;4706;41.844;26.082;2023-04-24T01:11:19;10.00;;;8.13;;
9334;SDS011;4706;41.844;26.082;2023-04-24T01:13:47;10.55;;;7.80;;
9334;SDS011;4706;41.844;26.082;2023-04-24T01:16:13;9.52;;;8.00;;
9334;SDS011;4706;41.844;26.082;2023-04-24T01:18:40;9.85;;;8.38;;
9334;SDS011;4706;41.844;26.082;2023-04-24T01:21:06;9.90;;;8.40;;
9334;SDS011;4706;41.844;26.082;2023-04-24T01:23:34;9.35;;;8.15;;
9334;SDS011;4706;41.844;26.082;2023-04-24T01:26:00;8.60;;;7.70;;
9334;SDS011;4706;41.844;26.082;2023-04-24T01:28:25;8.98;;;8.13;;
9334;SDS011;4706;41.844;26.082;2023-04-24T01:30:51;9.43;;;8.20;;
9334;SDS011;4706;41.844;26.082;2023-04-24T01:33:17;11.05;;;7.63;;
9334;SDS011;4706;41.844;26.082;2023-04-24T01:35:43;10.80;;;7.88;;
9334;SDS011;4706;41.844;26.082;2023-04-24T01:38:09;11.20;;;9.15;;
9334;SDS011;4706;41.844;26.082;2023-04-24T01:40:34;9.88;;;8.52;;
9334;SDS011;4706;41.844;26.082;2023-04-24T01:43:00;10.05;;;8.30;;
9334;SDS011;4706;41.844;26.082;2023-04-24T01:45:25;12.43;;;8.57;;
9334;SDS011;4706;41.844;26.082;2023-04-24T01:47:51;9.82;;;8.43;;
9334;SDS011;4706;41.844;26.082;2023-04-24T01:50:17;12.82;;;8.50;;
9334;SDS011;4706;41.844;26.082;2023-04-24T01:52:43;10.63;;;8.57;;
9334;SDS011;4706;41.844;26.082;2023-04-24T01:55:09;11.10;;;8.15;;
9334;SDS011;4706;41.844;26.082;2023-04-24T01:57:35;11.55;;;8.57;;
9334;SDS011;4706;41.844;26.082;2023-04-24T02:00:01;9.43;;;7.78;;
9334;SDS011;4706;41.844;26.082;2023-04-24T02:02:29;10.30;;;7.82;;
9334;SDS011;4706;41.844;26.082;2023-04-24T02:04:55;9.32;;;8.40;;
9334;SDS011;4706;41.844;26.082;2023-04-24T02:07:21;10.32;;;8.60;;
9334;SDS011;4706;41.844;26.082;2023-04-24T02:09:46;12.23;;;8.82;;
9334;SDS011;4706;41.844;26.082;2023-04-24T02:12:12;10.15;;;8.35;;
9334;SDS011;4706;41.844;26.082;2023-04-24T02:14:38;10.55;;;8.73;;
9334;SDS011;4706;41.844;26.082;2023-04-24T02:17:03;11.15;;;8.75;;
9334;SDS011;4706;41.844;26.082;2023-04-24T02:19:30;13.40;;;9.15;;
9334;SDS011;4706;41.844;26.082;2023-04-24T02:21:56;10.35;;;9.30;;
9334;SDS011;4706;41.844;26.082;2023-04-24T02:24:21;11.70;;;9.30;;
9334;SDS011;4706;41.844;26.082;2023-04-24T02:26:47;15.68;;;9.40;;
9334;SDS011;4706;41.844;26.082;2023-04-24T02:29:12;12.15;;;9.10;;
9334;SDS011;4706;41.844;26.082;2023-04-24T02:31:37;13.68;;;9.93;;
9334;SDS011;4706;41.844;26.082;2023-04-24T02:34:03;10.70;;;9.27;;
9334;SDS011;4706;41.844;26.082;2023-04-24T02:36:28;10.85;;;9.40;;
9334;SDS011;4706;41.844;26.082;2023-04-24T02:38:55;11.98;;;10.23;;
9334;SDS011;4706;41.844;26.082;2023-04-24T02:41:20;11.55;;;9.00;;
9334;SDS011;4706;41.844;26.082;2023-04-24T02:43:46;10.70;;;9.60;;
9334;SDS011;4706;41.844;26.082;2023-04-24T02:46:11;10.88;;;8.82;;
9334;SDS011;4706;41.844;26.082;2023-04-24T02:48:37;13.15;;;9.43;;
9334;SDS011;4706;41.844;26.082;2023-04-24T02:51:03;11.45;;;9.15;;
9334;SDS011;4706;41.844;26.082;2023-04-24T02:53:28;10.27;;;8.68;;
9334;SDS011;4706;41.844;26.082;2023-04-24T02:55:55;10.27;;;7.97;;
9334;SDS011;4706;41.844;26.082;2023-04-24T02:58:21;9.73;;;7.55;;
9334;SDS011;4706;41.844;26.082;2023-04-24T03:00:46;12.52;;;8.35;;
9334;SDS011;4706;41.844;26.082;2023-04-24T03:03:12;9.55;;;8.55;;
9334;SDS011;4706;41.844;26.082;2023-04-24T03:05:38;12.45;;;9.20;;
9334;SDS011;4706;41.844;26.082;2023-04-24T03:08:04;11.48;;;9.23;;
9334;SDS011;4706;41.844;26.082;2023-04-24T03:10:30;14.63;;;10.38;;
9334;SDS011;4706;41.844;26.082;2023-04-24T03:12:55;9.90;;;8.73;;
9334;SDS011;4706;41.844;26.082;2023-04-24T03:15:21;11.27;;;8.48;;
9334;SDS011;4706;41.844;26.082;2023-04-24T03:17:46;10.35;;;8.60;;
9334;SDS011;4706;41.844;26.082;2023-04-24T03:20:13;12.25;;;8.45;;
9334;SDS011;4706;41.844;26.082;2023-04-24T03:22:38;12.98;;;9.38;;
9334;SDS011;4706;41.844;26.082;2023-04-24T03:25:04;11.68;;;8.95;;
9334;SDS011;4706;41.844;26.082;2023-04-24T03:27:30;15.35;;;10.75;;
9334;SDS011;4706;41.844;26.082;2023-04-24T03:29:55;13.63;;;10.13;;
9334;SDS011;4706;41.844;26.082;2023-04-24T03:32:21;17.05;;;9.57;;
9334;SDS011;4706;41.844;26.082;2023-04-24T03:34:48;12.82;;;9.70;;
9334;SDS011;4706;41.844;26.082;2023-04-24T03:37:14;11.90;;;10.00;;
9334;SDS011;4706;41.844;26.082;2023-04-24T03:39:41;12.95;;;11.50;;
9334;SDS011;4706;41.844;26.082;2023-04-24T03:42:07;13.02;;;10.98;;
9334;SDS011;4706;41.844;26.082;2023-04-24T03:44:33;13.40;;;11.77;;
9334;SDS011;4706;41.844;26.082;2023-04-24T03:47:00;14.35;;;10.75;;
9334;SDS011;4706;41.844;26.082;2023-04-24T03:49:25;11.95;;;10.15;;
9334;SDS011;4706;41.844;26.082;2023-04-24T03:51:51;13.38;;;11.00;;
9334;SDS011;4706;41.844;26.082;2023-04-24T03:54:17;13.77;;;11.32;;
9334;SDS011;4706;41.844;26.082;2023-04-24T03:56:43;14.25;;;11.38;;
9334;SDS011;4706;41.844;26.082;2023-04-24T03:59:09;12.43;;;11.18;;
9334;SDS011;4706;41.844;26.082;2023-04-24T04:01:34;12.43;;;10.23;;
9334;SDS011;4706;41.844;26.082;2023-04-24T04:04:03;10.98;;;9.93;;
9334;SDS011;4706;41.844;26.082;2023-04-24T04:06:29;12.27;;;10.52;;
9334;SDS011;4706;41.844;26.082;2023-04-24T04:08:56;17.20;;;11.32;;
9334;SDS011;4706;41.844;26.082;2023-04-24T04:11:22;14.27;;;12.77;;
9334;SDS011;4706;41.844;26.082;2023-04-24T04:13:47;13.95;;;12.15;;
9334;SDS011;4706;41.844;26.082;2023-04-24T04:16:13;16.23;;;13.38;;
9334;SDS011;4706;41.844;26.082;2023-04-24T04:18:39;12.65;;;11.32;;
9334;SDS011;4706;41.844;26.082;2023-04-24T04:21:04;12.70;;;11.32;;
9334;SDS011;4706;41.844;26.082;2023-04-24T04:23:30;12.13;;;10.77;;
9334;SDS011;4706;41.844;26.082;2023-04-24T04:25:57;11.52;;;10.35;;
9334;SDS011;4706;41.844;26.082;2023-04-24T04:28:22;12.65;;;10.32;;
9334;SDS011;4706;41.844;26.082;2023-04-24T04:30:49;13.75;;;9.90;;
9334;SDS011;4706;41.844;26.082;2023-04-24T04:33:19;10.07;;;9.07;;
9334;SDS011;4706;41.844;26.082;2023-04-24T04:35:45;11.38;;;9.63;;
9334;SDS011;4706;41.844;26.082;2023-04-24T04:38:14;11.32;;;8.27;;
9334;SDS011;4706;41.844;26.082;2023-04-24T04:40:40;9.98;;;7.95;;
9334;SDS011;4706;41.844;26.082;2023-04-24T04:43:05;10.88;;;7.68;;
9334;SDS011;4706;41.844;26.082;2023-04-24T04:45:31;10.13;;;8.43;;
9334;SDS011;4706;41.844;26.082;2023-04-24T04:47:58;8.55;;;7.60;;
9334;SDS011;4706;41.844;26.082;2023-04-24T04:50:26;9.02;;;6.78;;
9334;SDS011;4706;41.844;26.082;2023-04-24T04:52:52;11.07;;;8.05;;
9334;SDS011;4706;41.844;26.082;2023-04-24T04:55:17;8.88;;;7.85;;
9334;SDS011;4706;41.844;26.082;2023-04-24T04:57:45;10.15;;;7.90;;
9334;SDS011;4706;41.844;26.082;2023-04-24T05:00:11;9.35;;;7.82;;
9334;SDS011;4706;41.844;26.082;2023-04-24T05:02:37;9.38;;;7.97;;
9334;SDS011;4706;41.844;26.082;2023-04-24T05:05:05;8.73;;;6.80;;
9334;SDS011;4706;41.844;26.082;2023-04-24T05:07:31;7.97;;;6.82;;
9334;SDS011;4706;41.844;26.082;2023-04-24T05:09:57;8.60;;;6.95;;
9334;SDS011;4706;41.844;26.082;2023-04-24T05:12:22;11.32;;;7.72;;
9334;SDS011;4706;41.844;26.082;2023-04-24T05:14:48;8.30;;;6.68;;
9334;SDS011;4706;41.844;26.082;2023-04-24T05:17:13;11.40;;;8.00;;
9334;SDS011;4706;41.844;26.082;2023-04-24T05:19:39;10.30;;;7.75;;
9334;SDS011;4706;41.844;26.082;2023-04-24T05:22:04;8.90;;;7.22;;
9334;SDS011;4706;41.844;26.082;2023-04-24T05:24:32;10.77;;;8.48;;
9334;SDS011;4706;41.844;26.082;2023-04-24T05:26:58;10.07;;;8.90;;
9334;SDS011;4706;41.844;26.082;2023-04-24T05:29:24;12.40;;;7.78;;
9334;SDS011;4706;41.844;26.082;2023-04-24T05:31:51;9.95;;;7.20;;
9334;SDS011;4706;41.844;26.082;2023-04-24T05:34:16;10.40;;;7.63;;
9334;SDS011;4706;41.844;26.082;2023-04-24T05:36:42;9.00;;;7.15;;
9334;SDS011;4706;41.844;26.082;2023-04-24T05:39:07;9.55;;;6.93;;
9334;SDS011;4706;41.844;26.082;2023-04-24T05:41:33;10.10;;;7.57;;
9334;SDS011;4706;41.844;26.082;2023-04-24T05:43:59;10.90;;;8.25;;
9334;SDS011;4706;41.844;26.082;2023-04-24T05:46:25;13.23;;;8.73;;
9334;SDS011;4706;41.844;26.082;2023-04-24T05:48:50;16.23;;;9.38;;
9334;SDS011;4706;41.844;26.082;2023-04-24T05:51:16;10.43;;;7.70;;
9334;SDS011;4706;41.844;26.082;2023-04-24T05:53:41;13.85;;;7.50;;
9334;SDS011;4706;41.844;26.082;2023-04-24T05:56:07;10.90;;;7.88;;
9334;SDS011;4706;41.844;26.082;2023-04-24T05:58:32;11.32;;;7.95;;
9334;SDS011;4706;41.844;26.082;2023-04-24T06:00:58;10.25;;;8.05;;
9334;SDS011;4706;41.844;26.082;2023-04-24T06:03:24;17.38;;;14.57;;
9334;SDS011;4706;41.844;26.082;2023-04-24T06:05:50;9.15;;;8.10;;
9334;SDS011;4706;41.844;26.082;2023-04-24T06:08:16;9.10;;;7.45;;
9334;SDS011;4706;41.844;26.082;2023-04-24T06:10:41;8.43;;;7.45;;
9334;SDS011;4706;41.844;26.082;2023-04-24T06:13:07;9.75;;;7.28;;
9334;SDS011;4706;41.844;26.082;2023-04-24T06:15:32;10.65;;;8.10;;
9334;SDS011;4706;41.844;26.082;2023-04-24T06:17:58;11.95;;;7.88;;
9334;SDS011;4706;41.844;26.082;2023-04-24T06:20:24;10.63;;;7.43;;
9334;SDS011;4706;41.844;26.082;2023-04-24T06:22:50;9.52;;;7.72;;
9334;SDS011;4706;41.844;26.082;2023-04-24T06:25:15;8.00;;;6.65;;
9334;SDS011;4706;41.844;26.082;2023-04-24T06:27:41;9.35;;;6.78;;
9334;SDS011;4706;41.844;26.082;2023-04-24T06:30:07;14.73;;;7.40;;
9334;SDS011;4706;41.844;26.082;2023-04-24T06:32:33;10.13;;;7.75;;
9334;SDS011;4706;41.844;26.082;2023-04-24T06:34:58;8.82;;;7.85;;
9334;SDS011;4706;41.844;26.082;2023-04-24T06:37:24;8.38;;;7.20;;
9334;SDS011;4706;41.844;26.082;2023-04-24T06:39:49;10.38;;;7.72;;
9334;SDS011;4706;41.844;26.082;2023-04-24T06:42:15;8.05;;;6.85;;
9334;SDS011;4706;41.844;26.082;2023-04-24T06:44:40;9.38;;;6.97;;
9334;SDS011;4706;41.844;26.082;2023-04-24T06:47:06;8.40;;;6.95;;
9334;SDS011;4706;41.844;26.082;2023-04-24T06:49:36;9.35;;;7.30;;
9334;SDS011;4706;41.844;26.082;2023-04-24T06:52:02;11.90;;;7.43;;
9334;SDS011;4706;41.844;26.082;2023-04-24T06:54:29;8.25;;;7.13;;
9334;SDS011;4706;41.844;26.082;2023-04-24T06:56:54;8.60;;;7.47;;
9334;SDS011;4706;41.844;26.082;2023-04-24T06:59:22;9.48;;;7.45;;
9334;SDS011;4706;41.844;26.082;2023-04-24T07:01:51;11.32;;;7.55;;
9334;SDS011;4706;41.844;26.082;2023-04-24T07:04:16;8.52;;;7.03;;
9334;SDS011;4706;41.844;26.082;2023-04-24T07:06:44;8.68;;;6.30;;
9334;SDS011;4706;41.844;26.082;2023-04-24T07:09:10;6.80;;;6.20;;
9334;SDS011;4706;41.844;26.082;2023-04-24T07:11:36;8.82;;;6.47;;
9334;SDS011;4706;41.844;26.082;2023-04-24T07:14:03;8.05;;;6.40;;
9334;SDS011;4706;41.844;26.082;2023-04-24T07:16:29;7.57;;;6.60;;
9334;SDS011;4706;41.844;26.082;2023-04-24T07:18:55;9.85;;;6.00;;
9334;SDS011;4706;41.844;26.082;2023-04-24T07:21:20;10.38;;;6.50;;
9334;SDS011;4706;41.844;26.082;2023-04-24T07:23:46;6.40;;;5.68;;
9334;SDS011;4706;41.844;26.082;2023-04-24T07:26:12;7.47;;;6.05;;
9334;SDS011;4706;41.844;26.082;2023-04-24T07:28:39;7.57;;;6.03;;
9334;SDS011;4706;41.844;26.082;2023-04-24T07:31:05;10.10;;;7.10;;
9334;SDS011;4706;41.844;26.082;2023-04-24T07:33:30;6.93;;;5.82;;
9334;SDS011;4706;41.844;26.082;2023-04-24T07:35:56;8.88;;;6.28;;
9334;SDS011;4706;41.844;26.082;2023-04-24T07:38:21;6.72;;;5.28;;
9334;SDS011;4706;41.844;26.082;2023-04-24T07:40:47;6.43;;;4.35;;
9334;SDS011;4706;41.844;26.082;2023-04-24T07:43:14;6.30;;;5.18;;
9334;SDS011;4706;41.844;26.082;2023-04-24T07:45:39;5.45;;;4.95;;
9334;SDS011;4706;41.844;26.082;2023-04-24T07:48:05;6.45;;;5.00;;
9334;SDS011;4706;41.844;26.082;2023-04-24T07:50:31;6.70;;;5.18;;
9334;SDS011;4706;41.844;26.082;2023-04-24T07:52:57;6.03;;;5.15;;
9334;SDS011;4706;41.844;26.082;2023-04-24T07:55:23;6.20;;;4.65;;
9334;SDS011;4706;41.844;26.082;2023-04-24T07:57:48;7.25;;;4.95;;
9334;SDS011;4706;41.844;26.082;2023-04-24T08:00:14;6.10;;;5.50;;
9334;SDS011;4706;41.844;26.082;2023-04-24T08:02:40;5.72;;;5.03;;
9334;SDS011;4706;41.844;26.082;2023-04-24T08:05:06;7.68;;;5.45;;
9334;SDS011;4706;41.844;26.082;2023-04-24T08:07:32;8.07;;;6.05;;
9334;SDS011;4706;41.844;26.082;2023-04-24T08:09:58;6.78;;;5.70;;
9334;SDS011;4706;41.844;26.082;2023-04-24T08:12:24;6.68;;;5.40;;
9334;SDS011;4706;41.844;26.082;2023-04-24T08:14:50;6.82;;;5.10;;
9334;SDS011;4706;41.844;26.082;2023-04-24T08:17:16;6.15;;;5.55;;
9334;SDS011;4706;41.844;26.082;2023-04-24T08:19:42;8.95;;;5.88;;
9334;SDS011;4706;41.844;26.082;2023-04-24T08:22:12;8.52;;;5.80;;
9334;SDS011;4706;41.844;26.082;2023-04-24T08:24:38;7.45;;;5.70;;
9334;SDS011;4706;41.844;26.082;2023-04-24T08:27:04;7.80;;;5.78;;
9334;SDS011;4706;41.844;26.082;2023-04-24T08:29:29;7.72;;;5.75;;
9334;SDS011;4706;41.844;26.082;2023-04-24T08:31:55;7.13;;;5.47;;
9334;SDS011;4706;41.844;26.082;2023-04-24T08:34:21;6.13;;;5.40;;
9334;SDS011;4706;41.844;26.082;2023-04-24T08:36:47;8.35;;;5.78;;
9334;SDS011;4706;41.844;26.082;2023-04-24T08:39:13;8.30;;;6.10;;
9334;SDS011;4706;41.844;26.082;2023-04-24T08:41:41;7.18;;;6.35;;
9334;SDS011;4706;41.844;26.082;2023-04-24T08:44:08;6.63;;;5.95;;
9334;SDS011;4706;41.844;26.082;2023-04-24T08:46:35;7.25;;;5.63;;
9334;SDS011;4706;41.844;26.082;2023-04-24T08:49:02;11.43;;;7.43;;
9334;SDS011;4706;41.844;26.082;2023-04-24T08:51:29;8.13;;;6.85;;
9334;SDS011;4706;41.844;26.082;2023-04-24T08:53:55;10.30;;;6.43;;
9334;SDS011;4706;41.844;26.082;2023-04-24T08:56:22;7.78;;;5.88;;
9334;SDS011;4706;41.844;26.082;2023-04-24T08:58:50;8.07;;;5.95;;
9334;SDS011;4706;41.844;26.082;2023-04-24T09:01:16;8.95;;;6.80;;
9334;SDS011;4706;41.844;26.082;2023-04-24T09:03:44;8.45;;;6.40;;
9334;SDS011;4706;41.844;26.082;2023-04-24T09:06:11;8.07;;;6.13;;
9334;SDS011;4706;41.844;26.082;2023-04-24T09:08:37;7.75;;;5.93;;
9334;SDS011;4706;41.844;26.082;2023-04-24T09:11:06;9.52;;;5.55;;
9334;SDS011;4706;41.844;26.082;2023-04-24T09:13:31;8.25;;;5.47;;
9334;SDS011;4706;41.844;26.082;2023-04-24T09:15:57;6.78;;;6.03;;
9334;SDS011;4706;41.844;26.082;2023-04-24T09:18:25;6.93;;;6.15;;
9334;SDS011;4706;41.844;26.082;2023-04-24T09:23:26;8.40;;;6.20;;
9334;SDS011;4706;41.844;26.082;2023-04-24T09:25:56;6.10;;;5.40;;
9334;SDS011;4706;41.844;26.082;2023-04-24T09:28:27;7.32;;;6.40;;
9334;SDS011;4706;41.844;26.082;2023-04-24T09:31:02;7.22;;;5.60;;
9334;SDS011;4706;41.844;26.082;2023-04-24T09:33:28;6.97;;;6.13;;
9334;SDS011;4706;41.844;26.082;2023-04-24T09:35:54;6.15;;;5.35;;
9334;SDS011;4706;41.844;26.082;2023-04-24T09:38:20;9.13;;;6.53;;
9334;SDS011;4706;41.844;26.082;2023-04-24T09:40:58;6.78;;;6.13;;
9334;SDS011;4706;41.844;26.082;2023-04-24T09:43:26;7.25;;;6.00;;
9334;SDS011;4706;41.844;26.082;2023-04-24T09:45:53;10.15;;;6.25;;
9334;SDS011;4706;41.844;26.082;2023-04-24T09:48:34;9.27;;;5.10;;
9334;SDS011;4706;41.844;26.082;2023-04-24T09:51:02;7.70;;;5.07;;
9334;SDS011;4706;41.844;26.082;2023-04-24T09:53:29;8.55;;;6.03;;
9334;SDS011;4706;41.844;26.082;2023-04-24T09:55:56;10.68;;;6.25;;
9334;SDS011;4706;41.844;26.082;2023-04-24T09:58:28;6.88;;;6.10;;
9334;SDS011;4706;41.844;26.082;2023-04-24T10:00:54;8.65;;;6.30;;
9334;SDS011;4706;41.844;26.082;2023-04-24T10:03:23;6.82;;;5.97;;
9334;SDS011;4706;41.844;26.082;2023-04-24T10:05:51;6.63;;;5.90;;
9334;SDS011;4706;41.844;26.082;2023-04-24T10:08:17;9.80;;;6.72;;
9334;SDS011;4706;41.844;26.082;2023-04-24T10:10:45;8.52;;;6.05;;
9334;SDS011;4706;41.844;26.082;2023-04-24T10:13:12;6.68;;;5.85;;
9334;SDS011;4706;41.844;26.082;2023-04-24T10:15:40;7.60;;;6.03;;
9334;SDS011;4706;41.844;26.082;2023-04-24T10:18:07;7.30;;;6.30;;
9334;SDS011;4706;41.844;26.082;2023-04-24T10:20:35;6.88;;;6.15;;
9334;SDS011;4706;41.844;26.082;2023-04-24T10:23:02;7.45;;;6.30;;
9334;SDS011;4706;41.844;26.082;2023-04-24T10:25:31;6.18;;;5.55;;
9334;SDS011;4706;41.844;26.082;2023-04-24T10:27:59;7.82;;;6.05;;
9334;SDS011;4706;41.844;26.082;2023-04-24T10:30:27;7.90;;;6.15;;
9334;SDS011;4706;41.844;26.082;2023-04-24T10:32:53;7.90;;;6.40;;
9334;SDS011;4706;41.844;26.082;2023-04-24T10:35:19;5.88;;;5.38;;
9334;SDS011;4706;41.844;26.082;2023-04-24T10:37:51;5.68;;;4.70;;
9334;SDS011;4706;41.844;26.082;2023-04-24T10:40:32;6.30;;;5.15;;
9334;SDS011;4706;41.844;26.082;2023-04-24T10:42:59;5.57;;;4.88;;
9334;SDS011;4706;41.844;26.082;2023-04-24T10:45:27;5.93;;;4.88;;
9334;SDS011;4706;41.844;26.082;2023-04-24T10:47:57;6.72;;;4.82;;
9334;SDS011;4706;41.844;26.082;2023-04-24T10:50:41;5.03;;;4.60;;
9334;SDS011;4706;41.844;26.082;2023-04-24T10:53:07;5.93;;;5.30;;
9334;SDS011;4706;41.844;26.082;2023-04-24T10:55:43;6.28;;;4.90;;
9334;SDS011;4706;41.844;26.082;2023-04-24T10:58:09;6.18;;;4.93;;
9334;SDS011;4706;41.844;26.082;2023-04-24T11:00:36;5.75;;;5.10;;
9334;SDS011;4706;41.844;26.082;2023-04-24T11:11:03;7.57;;;4.53;;
9334;SDS011;4706;41.844;26.082;2023-04-24T11:16:33;6.05;;;3.95;;
9334;SDS011;4706;41.844;26.082;2023-04-24T11:19:21;5.82;;;4.10;;
9334;SDS011;4706;41.844;26.082;2023-04-24T11:21:54;10.13;;;5.30;;
9334;SDS011;4706;41.844;26.082;2023-04-24T11:24:22;7.85;;;4.15;;
9334;SDS011;4706;41.844;26.082;2023-04-24T11:26:55;4.63;;;4.00;;
9334;SDS011;4706;41.844;26.082;2023-04-24T11:29:22;7.18;;;4.65;;
9334;SDS011;4706;41.844;26.082;2023-04-24T11:31:48;6.15;;;4.70;;
9334;SDS011;4706;41.844;26.082;2023-04-24T11:34:16;4.97;;;4.20;;
9334;SDS011;4706;41.844;26.082;2023-04-24T11:36:46;6.30;;;4.30;;
9334;SDS011;4706;41.844;26.082;2023-04-24T11:39:13;8.57;;;4.05;;
9334;SDS011;4706;41.844;26.082;2023-04-24T11:41:39;6.85;;;4.00;;
9334;SDS011;4706;41.844;26.082;2023-04-24T11:44:08;3.85;;;3.55;;
9334;SDS011;4706;41.844;26.082;2023-04-24T11:46:35;4.40;;;3.35;;
9334;SDS011;4706;41.844;26.082;2023-04-24T11:49:02;4.80;;;4.00;;
9334;SDS011;4706;41.844;26.082;2023-04-24T11:51:28;4.25;;;3.72;;
9334;SDS011;4706;41.844;26.082;2023-04-24T11:53:54;4.35;;;3.47;;
9334;SDS011;4706;41.844;26.082;2023-04-24T11:56:21;5.43;;;3.75;;
9334;SDS011;4706;41.844;26.082;2023-04-24T11:58:47;4.65;;;3.78;;
9334;SDS011;4706;41.844;26.082;2023-04-24T12:01:13;5.70;;;3.45;;
9334;SDS011;4706;41.844;26.082;2023-04-24T12:03:39;4.95;;;4.13;;
9334;SDS011;4706;41.844;26.082;2023-04-24T12:06:08;4.65;;;3.45;;
9334;SDS011;4706;41.844;26.082;2023-04-24T12:08:35;3.92;;;3.20;;
9334;SDS011;4706;41.844;26.082;2023-04-24T12:11:01;4.43;;;3.05;;
9334;SDS011;4706;41.844;26.082;2023-04-24T12:13:29;3.33;;;3.13;;
9334;SDS011;4706;41.844;26.082;2023-04-24T12:15:56;4.10;;;3.47;;
9334;SDS011;4706;41.844;26.082;2023-04-24T12:18:22;7.57;;;3.50;;
9334;SDS011;4706;41.844;26.082;2023-04-24T12:20:48;3.55;;;3.20;;
9334;SDS011;4706;41.844;26.082;2023-04-24T12:23:14;5.22;;;3.63;;
9334;SDS011;4706;41.844;26.082;2023-04-24T12:25:40;3.60;;;3.30;;
9334;SDS011;4706;41.844;26.082;2023-04-24T12:30:32;5.25;;;3.75;;
9334;SDS011;4706;41.844;26.082;2023-04-24T12:33:04;5.20;;;3.50;;
9334;SDS011;4706;41.844;26.082;2023-04-24T12:35:31;6.25;;;3.65;;
9334;SDS011;4706;41.844;26.082;2023-04-24T12:40:33;3.38;;;3.08;;
9334;SDS011;4706;41.844;26.082;2023-04-24T12:42:58;4.28;;;3.40;;
9334;SDS011;4706;41.844;26.082;2023-04-24T12:45:24;4.15;;;3.20;;
9334;SDS011;4706;41.844;26.082;2023-04-24T12:47:50;4.18;;;3.30;;
9334;SDS011;4706;41.844;26.082;2023-04-24T12:50:16;3.80;;;3.40;;
9334;SDS011;4706;41.844;26.082;2023-04-24T12:52:42;4.82;;;3.33;;
9334;SDS011;4706;41.844;26.082;2023-04-24T12:55:08;4.05;;;3.63;;
9334;SDS011;4706;41.844;26.082;2023-04-24T12:57:35;3.90;;;3.53;;
9334;SDS011;4706;41.844;26.082;2023-04-24T13:00:02;4.90;;;3.60;;
9334;SDS011;4706;41.844;26.082;2023-04-24T13:02:29;4.15;;;3.60;;
9334;SDS011;4706;41.844;26.082;2023-04-24T13:04:57;4.78;;;3.22;;
9334;SDS011;4706;41.844;26.082;2023-04-24T13:07:23;4.80;;;3.10;;
9334;SDS011;4706;41.844;26.082;2023-04-24T13:09:50;3.70;;;3.40;;
9334;SDS011;4706;41.844;26.082;2023-04-24T13:12:16;3.55;;;3.25;;
9334;SDS011;4706;41.844;26.082;2023-04-24T13:14:43;5.22;;;3.45;;
9334;SDS011;4706;41.844;26.082;2023-04-24T13:17:08;6.68;;;3.60;;
9334;SDS011;4706;41.844;26.082;2023-04-24T13:19:37;4.75;;;3.83;;
9334;SDS011;4706;41.844;26.082;2023-04-24T13:22:08;3.63;;;3.33;;
9334;SDS011;4706;41.844;26.082;2023-04-24T13:24:34;5.75;;;3.50;;
9334;SDS011;4706;41.844;26.082;2023-04-24T13:27:00;5.40;;;3.67;;
9334;SDS011;4706;41.844;26.082;2023-04-24T13:29:26;5.65;;;3.60;;
9334;SDS011;4706;41.844;26.082;2023-04-24T13:31:52;4.22;;;3.90;;
9334;SDS011;4706;41.844;26.082;2023-04-24T13:34:22;5.20;;;4.05;;
9334;SDS011;4706;41.844;26.082;2023-04-24T13:36:49;5.70;;;4.90;;
9334;SDS011;4706;41.844;26.082;2023-04-24T13:39:16;11.05;;;5.90;;
9334;SDS011;4706;41.844;26.082;2023-04-24T13:41:42;13.70;;;6.80;;
9334;SDS011;4706;41.844;26.082;2023-04-24T13:44:08;12.02;;;7.70;;
9334;SDS011;4706;41.844;26.082;2023-04-24T13:46:33;18.50;;;6.50;;
9334;SDS011;4706;41.844;26.082;2023-04-24T13:48:59;6.13;;;4.20;;
9334;SDS011;4706;41.844;26.082;2023-04-24T13:51:25;7.22;;;5.63;;
9334;SDS011;4706;41.844;26.082;2023-04-24T13:53:54;5.88;;;4.97;;
9334;SDS011;4706;41.844;26.082;2023-04-24T13:56:20;7.13;;;5.50;;
9334;SDS011;4706;41.844;26.082;2023-04-24T13:58:47;6.90;;;5.95;;
9334;SDS011;4706;41.844;26.082;2023-04-24T14:01:13;9.18;;;7.57;;
9334;SDS011;4706;41.844;26.082;2023-04-24T14:03:39;6.10;;;5.63;;
9334;SDS011;4706;41.844;26.082;2023-04-24T14:06:05;5.57;;;4.80;;
9334;SDS011;4706;41.844;26.082;2023-04-24T14:08:31;5.20;;;4.80;;
9334;SDS011;4706;41.844;26.082;2023-04-24T14:10:57;5.78;;;4.70;;
9334;SDS011;4706;41.844;26.082;2023-04-24T14:13:22;5.07;;;4.65;;
9334;SDS011;4706;41.844;26.082;2023-04-24T14:15:48;4.80;;;4.40;;
9334;SDS011;4706;41.844;26.082;2023-04-24T14:18:14;4.57;;;4.13;;
9334;SDS011;4706;41.844;26.082;2023-04-24T14:20:40;5.35;;;4.85;;
9334;SDS011;4706;41.844;26.082;2023-04-24T14:23:05;5.93;;;5.32;;
9334;SDS011;4706;41.844;26.082;2023-04-24T14:25:31;5.32;;;4.53;;
9334;SDS011;4706;41.844;26.082;2023-04-24T14:27:56;5.20;;;4.47;;
9334;SDS011;4706;41.844;26.082;2023-04-24T14:30:22;4.95;;;4.55;;
9334;SDS011;4706;41.844;26.082;2023-04-24T14:32:48;5.13;;;4.72;;
9334;SDS011;4706;41.844;26.082;2023-04-24T14:35:13;4.47;;;4.03;;
9334;SDS011;4706;41.844;26.082;2023-04-24T14:37:39;4.13;;;3.72;;
9334;SDS011;4706;41.844;26.082;2023-04-24T14:40:06;4.53;;;3.83;;
9334;SDS011;4706;41.844;26.082;2023-04-24T14:42:33;3.85;;;3.35;;
9334;SDS011;4706;41.844;26.082;2023-04-24T14:44:59;3.83;;;3.50;;
9334;SDS011;4706;41.844;26.082;2023-04-24T14:47:24;3.80;;;3.40;;
9334;SDS011;4706;41.844;26.082;2023-04-24T14:49:50;4.20;;;3.80;;
9334;SDS011;4706;41.844;26.082;2023-04-24T14:52:16;4.88;;;3.88;;
9334;SDS011;4706;41.844;26.082;2023-04-24T14:54:42;3.80;;;3.50;;
9334;SDS011;4706;41.844;26.082;2023-04-24T14:57:08;4.47;;;3.90;;
9334;SDS011;4706;41.844;26.082;2023-04-24T14:59:34;4.03;;;3.70;;
9334;SDS011;4706;41.844;26.082;2023-04-24T15:01:59;4.63;;;4.22;;
9334;SDS011;4706;41.844;26.082;2023-04-24T15:04:26;4.57;;;3.97;;
9334;SDS011;4706;41.844;26.082;2023-04-24T15:06:54;4.35;;;3.95;;
9334;SDS011;4706;41.844;26.082;2023-04-24T15:09:23;3.83;;;3.47;;